createdAt,value
2019-06-07T00:02:18.832Z,12.76
2019-06-07T00:04:48.838Z,12.76
2019-06-07T00:07:21.822Z,12.67
2019-06-07T00:09:49.600Z,12.76
2019-06-07T00:12:21.586Z,12.50
2019-06-07T00:14:49.961Z,12.27
2019-06-07T00:17:20.294Z,11.96
2019-06-07T00:19:50.446Z,11.92
2019-06-07T00:22:32.240Z,11.78
2019-06-07T00:24:52.196Z,11.51
2019-06-07T00:27:22.660Z,11.37
2019-06-07T00:29:52.229Z,11.29
2019-06-07T00:32:22.262Z,11.24
2019-06-07T00:34:52.013Z,11.30
2019-06-07T00:37:25.238Z,11.25
2019-06-07T00:40:12.936Z,11.29
2019-06-07T00:42:24.284Z,11.25
2019-06-07T00:44:54.215Z,11.06
2019-06-07T00:47:25.541Z,10.94
2019-06-07T00:49:54.531Z,10.87
2019-06-07T00:53:11.657Z,10.86
2019-06-07T00:54:55.379Z,10.97
2019-06-07T00:57:24.734Z,10.71
2019-06-07T00:59:54.126Z,11.01
2019-06-07T01:02:28.245Z,10.99
2019-06-07T01:04:54.956Z,11.23
2019-06-07T01:07:24.707Z,11.41
2019-06-07T01:09:54.117Z,11.47
2019-06-07T01:12:26.877Z,11.53
2019-06-07T01:14:55.046Z,11.61
2019-06-07T01:17:39.215Z,11.56
2019-06-07T01:19:56.509Z,11.45
2019-06-07T01:22:28.882Z,11.49
2019-06-07T01:24:56.916Z,10.99
2019-06-07T01:27:26.364Z,11.00
2019-06-07T01:29:55.860Z,11.16
2019-06-07T01:32:27.170Z,11.31
2019-06-07T01:34:56.612Z,11.37
2019-06-07T01:37:27.863Z,11.41
2019-06-07T01:39:57.437Z,11.50
2019-06-07T01:42:29.472Z,11.42
2019-06-07T01:44:57.817Z,11.56
2019-06-07T01:47:29.361Z,10.99
2019-06-07T01:49:58.203Z,10.98
2019-06-07T01:52:29.287Z,10.81
2019-06-07T01:54:59.206Z,10.75
2019-06-07T01:57:44.779Z,10.81
2019-06-07T02:00:00.086Z,10.92
2019-06-07T02:02:31.639Z,10.70
2019-06-07T02:05:00.472Z,10.45
2019-06-07T02:07:32.808Z,10.24
2019-06-07T02:10:00.873Z,10.17
2019-06-07T02:12:40.333Z,10.38
2019-06-07T02:15:01.777Z,10.34
2019-06-07T02:17:33.177Z,10.40
2019-06-07T02:20:02.637Z,10.63
2019-06-07T02:22:32.637Z,10.69
2019-06-07T02:25:37.355Z,10.41
2019-06-07T02:27:33.254Z,10.20
2019-06-07T02:30:35.241Z,10.16
2019-06-07T02:32:36.698Z,10.01
2019-06-07T02:35:07.239Z,10.05
2019-06-07T02:37:37.543Z,9.89
2019-06-07T02:40:07.832Z,9.73
2019-06-07T02:42:42.247Z,9.74
2019-06-07T02:45:10.845Z,10.03
2019-06-07T02:47:45.118Z,10.21
2019-06-07T02:50:14.849Z,10.22
2019-06-07T02:52:44.294Z,10.33
2019-06-07T02:55:13.689Z,10.51
2019-06-07T02:57:43.356Z,10.41
2019-06-07T03:00:47.563Z,10.21
2019-06-07T03:02:45.588Z,10.10
2019-06-07T03:05:15.038Z,10.01
2019-06-07T03:07:45.948Z,10.25
2019-06-07T03:10:15.308Z,10.09
2019-06-07T03:12:46.091Z,10.01
2019-06-07T03:15:32.232Z,9.83
2019-06-07T03:18:05.019Z,9.71
2019-06-07T03:20:36.746Z,9.40
2019-06-07T03:23:06.195Z,9.46
2019-06-07T03:25:37.742Z,9.53
2019-06-07T03:28:07.969Z,9.79
2019-06-07T03:30:57.185Z,9.94
2019-06-07T03:33:08.334Z,9.94
2019-06-07T03:35:40.328Z,9.97
2019-06-07T03:38:08.688Z,10.01
2019-06-07T03:40:40.015Z,10.06
2019-06-07T03:43:09.125Z,10.09
2019-06-07T03:45:41.509Z,10.38
2019-06-07T03:48:10.448Z,10.52
2019-06-07T03:50:42.407Z,10.79
2019-06-07T03:53:10.814Z,10.63
2019-06-07T03:55:41.445Z,10.79
2019-06-07T03:58:31.336Z,10.98
2019-06-07T04:00:43.435Z,11.04
2019-06-07T04:03:32.418Z,11.21
2019-06-07T04:05:44.602Z,11.44
2019-06-07T04:08:13.953Z,11.39
2019-06-07T04:10:58.600Z,11.45
2019-06-07T04:13:14.592Z,11.31
2019-06-07T04:15:43.951Z,11.00
2019-06-07T04:18:13.427Z,10.94
2019-06-07T04:20:42.769Z,10.71
2019-06-07T04:23:27.621Z,10.92
2019-06-07T04:25:43.256Z,11.06
2019-06-07T04:28:12.641Z,11.16
2019-06-07T04:30:42.976Z,10.99
2019-06-07T04:33:12.796Z,11.19
2019-06-07T04:35:43.350Z,11.29
2019-06-07T04:38:14.120Z,11.40
2019-06-07T04:40:44.532Z,11.61
2019-06-07T04:43:14.050Z,11.54
2019-06-07T04:45:50.928Z,11.96
2019-06-07T04:48:14.387Z,12.23
2019-06-07T04:50:44.293Z,12.57
2019-06-07T04:53:13.989Z,12.75
2019-06-07T04:55:43.436Z,12.93
2019-06-07T04:58:12.785Z,12.89
2019-06-07T05:00:58.757Z,13.20
2019-06-07T05:03:13.174Z,13.44
2019-06-07T05:05:43.884Z,13.43
2019-06-07T05:08:27.530Z,13.65
2019-06-07T05:10:44.593Z,13.82
2019-06-07T05:13:13.906Z,13.96
2019-06-07T05:15:43.327Z,14.02
2019-06-07T05:18:12.717Z,14.22
2019-06-07T05:20:44.544Z,14.44
2019-06-07T05:23:59.530Z,14.57
2019-06-07T05:25:44.922Z,14.22
2019-06-07T05:28:14.471Z,14.71
2019-06-07T05:31:03.686Z,14.90
2019-06-07T05:33:14.835Z,15.33
2019-06-07T05:35:44.212Z,15.93
2019-06-07T05:38:13.563Z,16.23
2019-06-07T05:40:48.603Z,16.19
2019-06-07T05:43:22.462Z,15.73
2019-06-07T05:45:52.167Z,15.23
2019-06-07T05:48:21.525Z,15.37
2019-06-07T05:50:56.755Z,15.20
2019-06-07T05:53:22.260Z,15.12
2019-06-07T05:55:52.377Z,15.51
2019-06-07T05:58:21.715Z,15.88
2019-06-07T06:00:51.483Z,16.28
2019-06-07T06:03:21.304Z,16.35
2019-06-07T06:05:55.358Z,16.59
2019-06-07T06:08:21.762Z,16.65
2019-06-07T06:10:51.098Z,16.83
2019-06-07T06:13:20.440Z,16.76
2019-06-07T06:16:00.427Z,16.49
2019-06-07T06:18:21.317Z,16.33
2019-06-07T06:21:15.596Z,16.94
2019-06-07T06:23:24.610Z,17.15
2019-06-07T06:25:57.648Z,17.55
2019-06-07T06:28:24.988Z,18.10
2019-06-07T06:30:54.418Z,17.77
2019-06-07T06:33:33.465Z,18.10
2019-06-07T06:35:55.084Z,18.44
2019-06-07T06:38:24.553Z,18.74
2019-06-07T06:41:13.949Z,19.11
2019-06-07T06:43:24.844Z,19.48
2019-06-07T06:45:54.537Z,19.91
2019-06-07T06:48:23.872Z,19.87
2019-06-07T06:50:53.230Z,19.49
2019-06-07T06:53:22.595Z,19.93
2019-06-07T06:55:51.977Z,20.31
2019-06-07T06:58:21.295Z,20.49
2019-06-07T07:01:04.855Z,20.84
2019-06-07T07:03:57.607Z,20.83
2019-06-07T07:05:55.140Z,21.02
2019-06-07T07:08:25.234Z,21.12
2019-06-07T07:10:55.136Z,20.98
2019-06-07T07:13:25.501Z,20.80
2019-06-07T07:15:57.931Z,20.90
2019-06-07T07:18:25.908Z,21.33
2019-06-07T07:20:57.443Z,21.16
2019-06-07T07:23:26.834Z,21.36
2019-06-07T07:25:59.449Z,21.57
2019-06-07T07:28:27.660Z,22.01
2019-06-07T07:30:57.494Z,21.97
2019-06-07T07:34:20.118Z,22.08
2019-06-07T07:38:29.890Z,22.72
2019-06-07T07:41:14.177Z,23.07
2019-06-07T07:43:33.409Z,23.20
2019-06-07T07:46:06.083Z,23.54
2019-06-07T07:48:33.886Z,23.71
2019-06-07T07:51:12.104Z,23.89
2019-06-07T07:53:52.187Z,23.48
2019-06-07T07:56:12.559Z,23.61
2019-06-07T07:58:42.001Z,23.42
2019-06-07T08:01:11.509Z,23.53
2019-06-07T08:03:41.085Z,23.47
2019-06-07T08:06:10.462Z,23.65
2019-06-07T08:08:39.828Z,23.86
2019-06-07T08:11:09.146Z,23.85
2019-06-07T08:13:38.520Z,24.28
2019-06-07T08:16:13.745Z,24.27
2019-06-07T08:18:38.921Z,24.83
2019-06-07T08:21:23.100Z,24.94
2019-06-07T08:23:39.935Z,24.89
2019-06-07T08:26:09.283Z,25.07
2019-06-07T08:28:38.640Z,24.66
2019-06-07T08:31:08.495Z,24.46
2019-06-07T08:33:37.873Z,24.80
2019-06-07T08:36:21.859Z,24.85
2019-06-07T08:38:47.433Z,24.98
2019-06-07T08:41:12.033Z,25.49
2019-06-07T08:43:40.344Z,25.89
2019-06-07T08:46:09.673Z,26.11
2019-06-07T08:48:39.030Z,26.19
2019-06-07T08:51:08.820Z,26.22
2019-06-07T08:53:38.556Z,26.30
2019-06-07T08:56:11.095Z,26.57
2019-06-07T08:58:39.273Z,26.29
2019-06-07T09:01:09.324Z,26.86
2019-06-07T09:03:39.442Z,26.94
2019-06-07T09:06:53.814Z,27.01
2019-06-07T09:08:40.082Z,27.35
2019-06-07T09:11:11.397Z,27.50
2019-06-07T09:13:40.501Z,27.13
2019-06-07T09:16:09.851Z,27.48
2019-06-07T09:18:43.799Z,27.29
2019-06-07T09:21:11.232Z,27.57
2019-06-07T09:23:40.565Z,28.02
2019-06-07T09:26:16.596Z,27.88
2019-06-07T09:28:42.318Z,27.66
2019-06-07T09:31:12.804Z,27.78
2019-06-07T09:33:42.508Z,27.76
2019-06-07T09:36:13.388Z,27.63
2019-06-07T09:38:43.159Z,27.53
2019-06-07T09:41:12.502Z,27.51
2019-06-07T09:46:16.128Z,27.29
2019-06-07T09:49:10.492Z,27.63
2019-06-07T09:51:19.603Z,27.71
2019-06-07T09:53:47.326Z,28.19
2019-06-07T09:56:16.923Z,28.38
2019-06-07T09:58:52.779Z,28.22
2019-06-07T10:01:17.401Z,27.86
2019-06-07T10:03:46.741Z,27.91
2019-06-07T10:06:16.133Z,28.02
2019-06-07T10:11:16.473Z,27.94
2019-06-07T10:13:46.537Z,27.59
2019-06-07T10:16:16.012Z,28.01
2019-06-07T10:18:45.358Z,28.18
2019-06-07T10:21:15.689Z,28.43
2019-06-07T10:23:45.143Z,28.93
2019-06-07T10:26:15.764Z,28.44
2019-06-07T10:28:47.880Z,28.31
2019-06-07T10:31:17.234Z,28.67
2019-06-07T10:33:46.564Z,28.60
2019-06-07T10:36:15.997Z,28.59
2019-06-07T10:38:45.576Z,28.38
2019-06-07T10:41:17.970Z,28.52
2019-06-07T10:43:47.356Z,28.49
2019-06-07T10:46:17.092Z,28.85
2019-06-07T10:48:46.553Z,28.61
2019-06-07T10:51:15.998Z,28.21
2019-06-07T10:53:45.433Z,28.95
2019-06-07T10:56:14.803Z,28.60
2019-06-07T10:58:44.357Z,28.31
2019-06-07T11:01:14.443Z,28.59
2019-06-07T11:03:44.130Z,28.93
2019-06-07T11:06:14.246Z,28.90
2019-06-07T11:08:44.765Z,28.99
2019-06-07T11:11:17.630Z,29.13
2019-06-07T11:13:52.363Z,29.13
2019-06-07T11:16:21.164Z,29.27
2019-06-07T11:18:58.720Z,29.74
2019-06-07T11:21:28.625Z,29.28
2019-06-07T11:23:58.034Z,29.43
2019-06-07T11:26:27.698Z,29.52
2019-06-07T11:28:57.249Z,30.06
2019-06-07T11:31:26.585Z,30.15
2019-06-07T11:33:56.059Z,30.55
2019-06-07T11:36:28.426Z,30.01
2019-06-07T11:38:58.530Z,30.41
2019-06-07T11:41:28.519Z,29.81
2019-06-07T11:43:58.054Z,29.84
2019-06-07T11:46:28.731Z,30.00
2019-06-07T11:48:58.131Z,29.57
2019-06-07T11:51:27.689Z,29.87
2019-06-07T11:53:57.141Z,29.69
2019-06-07T11:56:26.520Z,29.58
2019-06-07T11:58:55.904Z,30.19
2019-06-07T12:01:27.497Z,30.73
2019-06-07T12:03:58.852Z,30.15
2019-06-07T12:06:28.742Z,29.68
2019-06-07T12:08:58.743Z,30.00
2019-06-07T12:11:28.549Z,30.03
2019-06-07T12:13:58.239Z,29.49
2019-06-07T12:16:27.569Z,30.03
2019-06-07T12:18:57.476Z,30.26
2019-06-07T12:21:26.846Z,30.69
2019-06-07T12:23:56.194Z,30.98
2019-06-07T12:26:27.229Z,31.01
2019-06-07T12:28:56.743Z,31.18
2019-06-07T12:31:26.514Z,29.85
2019-06-07T12:33:55.947Z,29.47
2019-06-07T12:36:25.294Z,28.90
2019-06-07T12:38:54.616Z,28.51
2019-06-07T12:41:23.996Z,27.84
2019-06-07T12:43:53.322Z,27.67
2019-06-07T12:46:27.984Z,27.00
2019-06-07T12:48:53.672Z,26.98
2019-06-07T12:51:23.479Z,27.09
2019-06-07T12:53:52.877Z,27.19
2019-06-07T12:56:22.301Z,26.85
2019-06-07T12:58:53.156Z,26.17
2019-06-07T13:01:23.421Z,25.62
2019-06-07T13:03:53.873Z,25.72
2019-06-07T13:06:23.703Z,26.37
2019-06-07T13:08:54.682Z,26.28
2019-06-07T13:11:28.279Z,27.06
2019-06-07T13:13:55.139Z,27.39
2019-06-07T13:16:24.475Z,28.15
2019-06-07T13:18:53.859Z,28.80
2019-06-07T13:21:24.647Z,29.31
2019-06-07T13:23:54.505Z,29.31
2019-06-07T13:26:25.065Z,29.76
2019-06-07T13:28:55.511Z,29.78
2019-06-07T13:31:25.224Z,28.98
2019-06-07T13:33:59.043Z,28.43
2019-06-07T13:36:28.529Z,28.67
2019-06-07T13:38:57.964Z,28.99
2019-06-07T13:41:40.273Z,28.80
2019-06-07T13:43:58.656Z,28.92
2019-06-07T13:46:27.984Z,28.35
2019-06-07T13:48:57.382Z,29.00
2019-06-07T13:51:28.437Z,29.65
2019-06-07T13:53:57.673Z,29.55
2019-06-07T13:56:28.340Z,30.03
2019-06-07T13:58:57.826Z,30.17
2019-06-07T14:01:28.888Z,30.33
2019-06-07T14:03:59.057Z,30.64
2019-06-07T14:06:30.269Z,31.16
2019-06-07T14:09:00.039Z,31.38
2019-06-07T14:11:31.561Z,31.76
2019-06-07T14:14:00.415Z,31.82
2019-06-07T14:16:30.443Z,31.89
2019-06-07T14:19:00.095Z,32.39
2019-06-07T14:21:30.768Z,32.77
2019-06-07T14:24:00.363Z,32.02
2019-06-07T14:26:29.889Z,31.66
2019-06-07T14:28:59.287Z,30.85
2019-06-07T14:31:36.118Z,30.64
2019-06-07T14:34:05.496Z,31.32
2019-06-07T14:36:35.315Z,31.83
2019-06-07T14:39:05.790Z,30.89
2019-06-07T14:41:35.120Z,31.26
2019-06-07T14:44:05.048Z,30.85
2019-06-07T14:46:34.535Z,31.49
2019-06-07T14:49:03.948Z,31.58
2019-06-07T14:51:33.815Z,32.54
2019-06-07T14:54:05.078Z,31.59
2019-06-07T14:56:35.320Z,30.49
2019-06-07T14:59:05.210Z,31.21
2019-06-07T15:01:35.606Z,31.85
2019-06-07T15:04:05.296Z,31.21
2019-06-07T15:06:34.972Z,31.15
2019-06-07T15:09:06.293Z,30.15
2019-06-07T15:11:35.904Z,31.20
2019-06-07T15:14:05.800Z,32.44
2019-06-07T15:16:35.831Z,33.07
2019-06-07T15:19:05.319Z,34.25
2019-06-07T15:21:35.086Z,34.83
2019-06-07T15:24:05.243Z,35.62
2019-06-07T15:26:34.659Z,35.24
2019-06-07T15:29:04.037Z,35.19
2019-06-07T15:31:34.685Z,34.16
2019-06-07T15:34:05.455Z,33.86
2019-06-07T15:36:36.328Z,33.40
2019-06-07T15:39:07.339Z,32.72
2019-06-07T15:41:37.440Z,30.47
2019-06-07T15:44:07.290Z,27.36
2019-06-07T15:46:37.952Z,26.44
2019-06-07T15:49:08.303Z,26.24
2019-06-07T15:51:41.095Z,26.39
2019-06-07T15:54:10.767Z,25.92
2019-06-07T15:56:41.220Z,25.56
2019-06-07T15:59:11.049Z,25.82
2019-06-07T16:01:41.927Z,25.81
2019-06-07T16:04:11.480Z,25.66
2019-06-07T16:06:43.161Z,25.71
2019-06-07T16:09:11.898Z,25.65
2019-06-07T16:11:41.753Z,25.63
2019-06-07T16:14:12.457Z,25.66
2019-06-07T16:16:43.261Z,25.53
2019-06-07T16:19:13.157Z,25.37
2019-06-07T16:21:43.707Z,25.76
2019-06-07T16:24:13.379Z,25.94
2019-06-07T16:26:42.728Z,25.70
2019-06-07T16:29:12.654Z,25.78
2019-06-07T16:31:45.153Z,25.93
2019-06-07T16:34:14.806Z,26.00
2019-06-07T16:36:44.693Z,26.11
2019-06-07T16:39:14.061Z,26.38
2019-06-07T16:41:44.733Z,26.61
2019-06-07T16:44:14.469Z,26.66
2019-06-07T16:46:45.078Z,26.73
2019-06-07T16:49:14.583Z,26.77
2019-06-07T16:51:45.255Z,26.64
2019-06-07T16:54:15.028Z,26.28
2019-06-07T16:56:48.034Z,25.92
2019-06-07T16:59:16.358Z,25.46
2019-06-07T17:01:45.684Z,25.01
2019-06-07T17:04:15.068Z,25.22
2019-06-07T17:06:46.278Z,25.16
2019-06-07T17:09:15.367Z,25.19
2019-06-07T17:11:44.808Z,24.92
2019-06-07T17:14:20.357Z,24.91
2019-06-07T17:16:50.280Z,24.74
2019-06-07T17:19:20.028Z,24.62
2019-06-07T17:21:49.607Z,24.44
2019-06-07T17:24:19.237Z,24.31
2019-06-07T17:26:49.648Z,24.12
2019-06-07T17:29:19.298Z,24.07
2019-06-07T17:31:48.717Z,23.94
2019-06-07T17:34:18.218Z,23.70
2019-06-07T17:36:48.621Z,23.47
2019-06-07T17:39:18.092Z,23.45
2019-06-07T17:42:01.084Z,23.35
2019-06-07T17:44:19.612Z,23.27
2019-06-07T17:46:49.930Z,23.24
2019-06-07T17:49:19.719Z,23.12
2019-06-07T17:51:50.024Z,22.90
2019-06-07T17:54:19.464Z,22.79
2019-06-07T17:56:48.793Z,22.81
2019-06-07T17:59:18.534Z,22.70
2019-06-07T18:02:12.724Z,22.52
2019-06-07T18:04:19.937Z,22.33
2019-06-07T18:06:51.478Z,22.20
2019-06-07T18:09:23.088Z,22.00
2019-06-07T18:11:54.036Z,21.84
2019-06-07T18:14:23.765Z,21.75
2019-06-07T18:16:53.096Z,21.68
2019-06-07T18:19:22.950Z,21.53
2019-06-07T18:21:55.963Z,21.46
2019-06-07T18:24:23.752Z,21.32
2019-06-07T18:26:53.098Z,21.19
2019-06-07T18:29:23.389Z,21.14
2019-06-07T18:31:52.907Z,20.94
2019-06-07T18:34:22.865Z,20.93
2019-06-07T18:36:53.120Z,20.92
2019-06-07T18:39:22.655Z,20.91
2019-06-07T18:41:53.356Z,20.80
2019-06-07T18:44:22.893Z,20.75
2019-06-07T18:46:52.302Z,20.68
2019-06-07T18:49:22.036Z,20.49
2019-06-07T18:52:10.276Z,20.29
2019-06-07T18:54:39.627Z,20.35
2019-06-07T18:57:12.343Z,20.35
2019-06-07T18:59:40.835Z,20.24
2019-06-07T19:02:10.329Z,20.11
2019-06-07T19:04:39.663Z,20.03
2019-06-07T19:07:09.174Z,20.08
2019-06-07T19:09:38.574Z,19.93
2019-06-07T19:12:08.285Z,19.70
2019-06-07T19:14:37.813Z,19.59
2019-06-07T19:17:07.525Z,19.54
2019-06-07T19:19:37.605Z,19.43
2019-06-07T19:22:08.546Z,19.50
2019-06-07T19:24:38.701Z,19.46
2019-06-07T19:27:08.886Z,19.12
2019-06-07T19:29:38.544Z,18.50
2019-06-07T19:32:08.855Z,18.21
2019-06-07T19:34:41.544Z,18.10
2019-06-07T19:37:13.238Z,18.21
2019-06-07T19:39:44.289Z,17.96
2019-06-07T19:42:15.268Z,17.85
2019-06-07T19:44:54.519Z,17.79
2019-06-07T19:47:16.729Z,17.96
2019-06-07T19:49:46.290Z,18.02
2019-06-07T19:52:16.441Z,18.16
2019-06-07T19:54:46.008Z,18.14
2019-06-07T19:57:15.564Z,18.10
2019-06-07T19:59:45.045Z,18.18
2019-06-07T20:02:14.576Z,18.24
2019-06-07T20:04:44.000Z,18.26
2019-06-07T20:07:13.481Z,18.24
2019-06-07T20:09:43.262Z,18.14
2019-06-07T20:12:13.348Z,18.08
2019-06-07T20:14:43.269Z,18.10
2019-06-07T20:17:12.956Z,18.03
2019-06-07T20:19:43.223Z,17.97
2019-06-07T20:22:13.380Z,18.00
2019-06-07T20:24:43.759Z,17.94
2019-06-07T20:27:16.476Z,17.90
2019-06-07T20:29:45.910Z,17.93
2019-06-07T20:32:15.320Z,17.79
2019-06-07T20:34:45.003Z,17.62
2019-06-07T20:37:15.002Z,17.71
2019-06-07T20:39:46.495Z,17.69
2019-06-07T20:42:16.117Z,17.53
2019-06-07T20:44:45.684Z,17.40
2019-06-07T20:47:15.633Z,17.41
2019-06-07T20:49:45.617Z,17.43
2019-06-07T20:52:15.223Z,17.34
2019-06-07T20:54:44.557Z,17.34
2019-06-07T20:57:13.936Z,17.24
2019-06-07T20:59:43.305Z,17.27
2019-06-07T21:02:12.673Z,17.08
2019-06-07T21:04:42.406Z,16.92
2019-06-07T21:07:11.805Z,16.66
2019-06-07T21:09:41.209Z,16.49
2019-06-07T21:12:10.956Z,15.84
2019-06-07T21:14:40.675Z,15.73
2019-06-07T21:17:10.323Z,15.69
2019-06-07T21:19:39.784Z,15.67
2019-06-07T21:22:09.155Z,15.62
2019-06-07T21:24:38.648Z,15.70
2019-06-07T21:27:09.354Z,15.51
2019-06-07T21:29:39.211Z,15.38
2019-06-07T21:32:09.659Z,15.38
2019-06-07T21:34:39.746Z,15.46
2019-06-07T21:37:09.943Z,15.45
2019-06-07T21:39:39.693Z,15.41
2019-06-07T21:42:10.318Z,15.53
2019-06-07T21:44:39.633Z,15.50
2019-06-07T21:47:09.014Z,15.33
2019-06-07T21:49:38.412Z,15.24
2019-06-07T21:52:08.723Z,15.06
2019-06-07T21:54:38.310Z,15.00
2019-06-07T21:57:08.977Z,14.97
2019-06-07T21:59:38.805Z,15.12
2019-06-07T22:02:09.459Z,15.27
2019-06-07T22:04:39.632Z,15.51
2019-06-07T22:07:09.568Z,15.48
2019-06-07T22:09:39.211Z,15.72
2019-06-07T22:12:10.036Z,15.75
2019-06-07T22:14:39.664Z,15.57
2019-06-07T22:17:10.271Z,15.68
2019-06-07T22:19:39.851Z,15.81
2019-06-07T22:22:09.381Z,15.75
2019-06-07T22:24:39.387Z,15.68
2019-06-07T22:27:09.132Z,15.66
2019-06-07T22:29:38.642Z,15.52
2019-06-07T22:32:08.870Z,15.50
2019-06-07T22:34:38.432Z,15.52
2019-06-07T22:37:09.168Z,15.54
2019-06-07T22:39:41.496Z,15.48
2019-06-07T22:42:11.993Z,15.47
2019-06-07T22:44:43.833Z,15.53
2019-06-07T22:47:14.066Z,15.47
2019-06-07T22:49:43.588Z,15.41
2019-06-07T22:52:15.240Z,15.43
2019-06-07T22:54:44.909Z,15.44
2019-06-07T22:57:19.952Z,15.29
2019-06-07T22:59:49.299Z,15.36
2019-06-07T23:02:18.890Z,14.89
2019-06-07T23:04:48.552Z,14.73
2019-06-07T23:07:19.232Z,14.81
2019-06-07T23:09:48.840Z,14.51
2019-06-07T23:12:19.459Z,14.15
2019-06-07T23:14:49.054Z,14.15
2019-06-07T23:17:20.592Z,14.10
2019-06-07T23:19:56.000Z,14.05
2019-06-07T23:22:25.348Z,13.99
2019-06-07T23:24:55.495Z,13.84
2019-06-07T23:27:25.259Z,13.78
2019-06-07T23:29:54.546Z,13.82
2019-06-07T23:32:23.884Z,13.81
2019-06-07T23:34:53.257Z,13.78
2019-06-07T23:37:22.593Z,13.68
2019-06-07T23:39:52.305Z,13.86
2019-06-07T23:42:21.911Z,14.13
2019-06-07T23:44:52.364Z,14.12
2019-06-07T23:47:22.423Z,14.13
2019-06-07T23:49:52.200Z,14.12
2019-06-07T23:52:22.115Z,14.43
2019-06-07T23:54:51.682Z,14.46
2019-06-07T23:57:22.594Z,14.46
2019-06-07T23:59:52.104Z,14.38
